Time;durP1;ratioP1;P1;durP2;ratioP2;P2;SDS_P1;SDS_P2;PMS_P1;PMS_P2;Temp;Humidity;BMP_temperature;BMP_pressure;BME280_temperature;BME280_humidity;BME280_pressure;Samples;Min_cycle;Max_cycle;Signal;HPM_P1;HPM_P2
2022/07/30 00:01:36;;;;;;;7.80;5.15;;;;;;;19.84;61.20;99086.19;5203823;28;20079;-71
2022/07/30 00:04:27;;;;;;;6.45;4.88;;;;;;;19.89;59.67;99086.41;5204652;28;20053;-71
2022/07/30 00:07:17;;;;;;;8.18;5.45;;;;;;;19.89;60.68;99086.41;5204595;28;20053;-71
2022/07/30 00:10:08;;;;;;;7.78;5.45;;;;;;;19.97;60.48;99089.94;5204217;28;20104;-71
2022/07/30 00:12:58;;;;;;;8.27;5.45;;;;;;;19.92;60.76;99087.88;5202852;28;20056;-71
2022/07/30 00:15:48;;;;;;;8.65;5.38;;;;;;;19.92;60.59;99099.47;5204115;28;20191;-71
2022/07/30 00:18:38;;;;;;;7.18;5.45;;;;;;;19.87;60.70;99090.34;5190782;28;20130;-71
2022/07/30 00:21:29;;;;;;;8.70;5.50;;;;;;;19.74;61.54;99090.31;5202506;28;20049;-71
2022/07/30 00:24:28;;;;;;;6.40;4.95;;;;;;;19.81;61.10;99094.66;5204070;28;20076;-71
2022/07/30 00:27:18;;;;;;;8.57;5.60;;;;;;;19.71;60.35;99086.16;5203595;28;20135;-71
2022/07/30 00:30:09;;;;;;;8.23;4.97;;;;;;;19.76;60.89;99098.97;5203208;28;20053;-71
2022/07/30 00:32:59;;;;;;;6.85;5.03;;;;;;;19.60;61.96;99092.03;5201747;28;20072;-71
2022/07/30 00:35:49;;;;;;;9.07;4.50;;;;;;;19.70;60.88;99101.47;5203150;28;20049;-71
2022/07/30 00:38:39;;;;;;;5.82;4.82;;;;;;;19.76;61.66;99113.25;5203638;28;20076;-71
2022/07/30 00:41:29;;;;;;;6.15;5.00;;;;;;;19.73;61.70;99116.34;5203029;28;20041;-71
2022/07/30 00:44:20;;;;;;;5.32;4.80;;;;;;;19.79;60.75;99106.66;5203437;28;20046;-71
2022/07/30 00:47:10;;;;;;;7.38;4.78;;;;;;;19.61;61.56;99124.13;5202667;28;20532;-71
2022/07/30 00:50:03;;;;;;;6.65;4.07;;;;;;;19.77;61.22;99116.78;5188496;28;20041;-71
2022/07/30 00:52:53;;;;;;;5.03;4.22;;;;;;;19.77;60.81;99128.41;5201804;28;20061;-71
2022/07/30 00:55:43;;;;;;;4.80;4.15;;;;;;;19.93;60.58;99121.81;5203029;28;20049;-71
2022/07/30 00:58:33;;;;;;;6.32;3.55;;;;;;;20.01;60.12;99123.53;5202841;28;20486;-71
2022/07/30 01:01:24;;;;;;;8.57;4.47;;;;;;;19.80;59.88;99105.63;5202556;28;20587;-71
2022/07/30 01:04:14;;;;;;;3.97;3.58;;;;;;;19.89;59.35;99115.19;5203286;28;20057;-71
2022/07/30 01:07:04;;;;;;;5.07;3.75;;;;;;;19.83;59.19;99122.19;5203062;28;20514;-71
2022/07/30 01:09:54;;;;;;;10.38;4.05;;;;;;;19.77;59.92;99116.78;5215837;28;20432;-71
2022/07/30 01:12:45;;;;;;;4.60;3.80;;;;;;;19.64;60.02;99115.69;5201168;28;20080;-71
2022/07/30 01:15:36;;;;;;;4.60;4.10;;;;;;;19.66;59.92;99115.50;5202904;28;20056;-71
2022/07/30 01:19:47;;;;;;;4.15;3.78;;;;;;;19.66;60.07;99102.03;5202577;28;20053;-71
2022/07/30 01:21:45;;;;;;;6.82;4.20;;;;;;;19.95;58.89;99122.44;5202143;28;20131;-71
2022/07/30 01:24:41;;;;;;;7.13;4.20;;;;;;;19.63;59.97;99105.94;5202637;28;20056;-71
2022/07/30 01:27:44;;;;;;;5.07;4.03;;;;;;;19.42;60.21;99117.59;5202034;28;20061;-71
2022/07/30 01:30:39;;;;;;;4.68;4.13;;;;;;;19.21;60.96;99101.56;5201569;28;20068;-71
2022/07/30 01:33:32;;;;;;;6.32;3.92;;;;;;;19.32;60.89;99117.13;5201323;28;20049;-71
2022/07/30 01:36:23;;;;;;;6.10;4.25;;;;;;;19.29;60.64;99132.81;5201671;28;20520;-71
2022/07/30 01:39:18;;;;;;;8.02;4.85;;;;;;;19.16;61.83;99120.94;5202296;28;20057;-71
2022/07/30 01:42:12;;;;;;;7.00;4.72;;;;;;;19.27;61.05;99124.97;5200634;28;20415;-71
2022/07/30 01:45:04;;;;;;;5.43;4.68;;;;;;;19.31;60.93;99125.41;5201767;28;20518;-71
2022/07/30 01:47:59;;;;;;;8.15;4.82;;;;;;;19.24;60.63;99118.13;5195827;28;20129;-71
2022/07/30 01:50:53;;;;;;;6.57;4.45;;;;;;;19.31;60.77;99128.09;5181296;28;20053;-71
2022/07/30 01:53:46;;;;;;;4.45;3.75;;;;;;;19.22;61.16;99122.84;5196248;28;20064;-71
2022/07/30 01:56:41;;;;;;;5.53;4.93;;;;;;;19.27;60.65;99118.75;5200537;28;20080;-71
2022/07/30 01:59:34;;;;;;;7.55;4.35;;;;;;;19.38;60.75;99124.41;5215037;28;20115;-71
2022/07/30 02:02:24;;;;;;;7.63;4.43;;;;;;;19.33;60.69;99126.03;5200750;28;20053;-71
2022/07/30 02:05:15;;;;;;;4.78;4.28;;;;;;;19.21;60.45;99115.84;5202265;28;20848;-71
2022/07/30 02:08:17;;;;;;;5.60;4.32;;;;;;;19.19;60.72;99119.72;5186217;28;20792;-71
2022/07/30 02:11:15;;;;;;;6.55;4.35;;;;;;;19.16;60.60;99118.25;5200260;28;20187;-71
2022/07/30 02:14:13;;;;;;;7.10;4.97;;;;;;;19.17;61.27;99119.09;5186163;28;20041;-71
2022/07/30 02:17:06;;;;;;;6.13;4.13;;;;;;;19.17;61.27;99119.94;5201052;28;20060;-71
2022/07/30 02:20:10;;;;;;;8.45;4.18;;;;;;;19.15;60.64;99119.31;5201552;28;20048;-71
2022/07/30 02:23:09;;;;;;;6.20;4.35;;;;;;;19.06;60.42;99111.56;5215125;28;20053;-71
2022/07/30 02:26:00;;;;;;;8.65;5.05;;;;;;;19.05;61.45;99116.13;5201707;28;20072;-71
2022/07/30 02:28:53;;;;;;;6.05;4.28;;;;;;;19.06;61.11;99107.03;5201097;28;20054;-71
2022/07/30 02:31:44;;;;;;;8.10;4.70;;;;;;;19.15;60.99;99119.31;5213796;28;20048;-71
2022/07/30 02:34:37;;;;;;;6.35;4.10;;;;;;;18.89;61.85;99097.59;5201266;28;20170;-72
2022/07/30 02:37:31;;;;;;;4.93;4.22;;;;;;;18.98;61.40;99120.63;5206303;28;20119;-71
2022/07/30 02:40:34;;;;;;;6.70;4.50;;;;;;;19.07;61.52;99116.75;5207235;28;20519;-71
2022/07/30 02:43:26;;;;;;;5.80;4.25;;;;;;;19.27;61.02;99135.72;5219155;28;20053;-71
2022/07/30 02:46:27;;;;;;;6.53;4.82;;;;;;;18.97;61.54;99132.38;5205043;28;20072;-71
2022/07/30 02:49:38;;;;;;;4.80;4.10;;;;;;;19.02;61.18;99136.16;5205904;28;20061;-71
2022/07/30 02:52:31;;;;;;;8.45;4.95;;;;;;;18.95;61.16;99148.72;5204427;28;20111;-71
2022/07/30 02:55:23;;;;;;;5.95;4.65;;;;;;;18.91;61.45;99149.31;5205595;28;20418;-71
2022/07/30 02:58:21;;;;;;;5.30;4.30;;;;;;;18.78;61.71;99152.69;5201852;28;20115;-71
2022/07/30 03:01:14;;;;;;;5.93;4.40;;;;;;;18.75;61.53;99161.97;5204177;28;20056;-71
2022/07/30 03:04:05;;;;;;;6.57;3.73;;;;;;;18.67;61.41;99164.72;5204943;28;20075;-71
2022/07/30 03:06:57;;;;;;;4.78;4.13;;;;;;;18.58;61.90;99167.75;5204339;28;20115;-71
2022/07/30 03:09:52;;;;;;;6.90;4.78;;;;;;;18.54;62.01;99146.66;5218643;28;20054;-71
2022/07/30 03:12:44;;;;;;;9.88;4.65;;;;;;;18.67;62.06;99159.38;5204147;28;20096;-71
2022/07/30 03:15:36;;;;;;;5.85;4.28;;;;;;;18.64;60.93;99145.47;5204301;28;20057;-71
2022/07/30 03:18:33;;;;;;;7.25;4.50;;;;;;;18.60;61.53;99163.84;5190788;28;20052;-71
2022/07/30 03:21:26;;;;;;;5.65;4.65;;;;;;;18.64;61.43;99175.03;5203463;28;20072;-71
2022/07/30 03:24:18;;;;;;;6.13;4.68;;;;;;;18.51;61.47;99173.06;5204979;28;20057;-72
2022/07/30 03:27:09;;;;;;;6.57;4.43;;;;;;;18.35;61.50;99149.13;5204227;28;20057;-71
2022/07/30 03:30:01;;;;;;;6.97;4.90;;;;;;;18.63;61.83;99178.75;5204232;28;20107;-71
2022/07/30 03:32:54;;;;;;;7.70;5.38;;;;;;;18.67;60.90;99170.09;5187887;28;20060;-71
2022/07/30 03:35:46;;;;;;;6.13;5.43;;;;;;;18.56;61.23;99178.69;5205196;28;20057;-71
2022/07/30 03:38:38;;;;;;;8.73;5.40;;;;;;;18.49;61.59;99178.59;5205036;28;20050;-71
2022/07/30 03:41:29;;;;;;;7.68;5.00;;;;;;;18.48;61.38;99184.19;5217866;28;20179;-71
2022/07/30 03:44:22;;;;;;;6.65;4.95;;;;;;;18.18;61.80;99186.94;5203511;28;20060;-71
2022/07/30 03:47:14;;;;;;;6.57;5.10;;;;;;;18.22;61.84;99195.44;5203615;28;20127;-71
2022/07/30 03:50:11;;;;;;;8.90;5.25;;;;;;;18.19;62.03;99199.34;5217730;28;20060;-71
2022/07/30 03:53:06;;;;;;;8.32;4.97;;;;;;;18.18;61.96;99202.19;5188228;28;20056;-71
2022/07/30 03:56:05;;;;;;;5.88;4.88;;;;;;;18.07;61.79;99203.50;5203440;28;20060;-71
2022/07/30 03:59:17;;;;;;;6.43;5.05;;;;;;;17.83;62.87;99194.72;5201569;28;20057;-71
2022/07/30 04:02:08;;;;;;;9.02;5.47;;;;;;;17.96;62.54;99202.13;5202808;28;20171;-71
2022/07/30 04:05:17;;;;;;;5.55;4.95;;;;;;;17.87;62.19;99205.09;5204515;28;20049;-71
2022/07/30 04:08:09;;;;;;;7.60;5.03;;;;;;;17.66;62.81;99203.13;5203136;28;20049;-71
2022/07/30 04:11:00;;;;;;;7.53;4.75;;;;;;;17.60;62.93;99212.72;5202552;28;20124;-71
2022/07/30 04:14:13;;;;;;;5.85;5.10;;;;;;;17.47;64.04;99188.41;5203979;28;20061;-71
2022/07/30 04:17:23;;;;;;;7.60;5.45;;;;;;;17.82;63.01;99208.34;5202752;28;20049;-71
2022/07/30 04:20:22;;;;;;;7.88;5.65;;;;;;;17.78;63.37;99218.63;5203180;28;20522;-71
2022/07/30 04:23:14;;;;;;;6.38;5.30;;;;;;;17.71;63.14;99220.31;5188589;28;20119;-71
2022/07/30 04:26:06;;;;;;;8.02;5.43;;;;;;;17.63;63.45;99231.13;5202840;28;20128;-72
2022/07/30 04:28:58;;;;;;;9.55;5.63;;;;;;;17.64;63.71;99232.78;5203469;28;20045;-71
2022/07/30 04:31:48;;;;;;;7.93;5.40;;;;;;;17.71;63.80;99225.66;5202700;28;20179;-71
2022/07/30 04:34:59;;;;;;;8.85;4.93;;;;;;;17.61;63.30;99230.47;5180029;28;20053;-71
2022/07/30 04:38:19;;;;;;;8.65;5.68;;;;;;;17.57;63.08;99237.22;5198094;28;20061;-71
2022/07/30 04:41:12;;;;;;;7.97;5.80;;;;;;;17.70;63.83;99232.06;5202155;28;20060;-72
2022/07/30 04:44:25;;;;;;;9.82;6.47;;;;;;;17.82;65.03;99237.84;5189223;28;20060;-71
2022/07/30 04:47:39;;;;;;;8.93;5.47;;;;;;;17.91;63.59;99233.22;5192161;28;20076;-72
2022/07/30 04:51:07;;;;;;;6.32;5.32;;;;;;;17.92;63.43;99240.25;5193766;28;20056;-71
2022/07/30 04:53:58;;;;;;;9.05;6.13;;;;;;;17.82;63.02;99230.63;5202247;28;20080;-71
2022/07/30 04:56:51;;;;;;;10.52;6.32;;;;;;;17.97;64.03;99246.72;5202677;28;20084;-72
2022/07/30 04:59:44;;;;;;;10.93;6.85;;;;;;;18.12;63.81;99257.47;5202052;28;20128;-72
2022/07/30 05:02:38;;;;;;;12.45;7.00;;;;;;;18.06;63.96;99256.34;5202112;28;20041;-71
2022/07/30 05:05:31;;;;;;;10.30;7.20;;;;;;;18.22;63.44;99258.00;5202676;28;20053;-72
2022/07/30 05:08:23;;;;;;;9.20;6.95;;;;;;;18.39;62.50;99257.78;5201944;28;20685;-72
2022/07/30 05:11:14;;;;;;;9.55;6.30;;;;;;;18.30;62.40;99247.16;5201677;28;20718;-72
2022/07/30 05:14:06;;;;;;;9.75;6.50;;;;;;;18.42;62.71;99258.25;5202078;28;20072;-71
2022/07/30 05:16:56;;;;;;;8.32;6.68;;;;;;;18.52;62.17;99257.97;5216037;28;20054;-72
2022/07/30 05:19:47;;;;;;;10.63;6.88;;;;;;;18.45;63.60;99265.09;5201960;28;20049;-71
2022/07/30 05:22:38;;;;;;;7.30;6.13;;;;;;;18.58;62.78;99256.38;5188649;28;20128;-71
2022/07/30 05:25:33;;;;;;;10.13;7.43;;;;;;;18.66;62.23;99267.00;5201868;28;20519;-72
2022/07/30 05:28:37;;;;;;;9.13;6.68;;;;;;;18.73;62.42;99262.56;5198179;28;20063;-71
2022/07/30 05:31:33;;;;;;;10.07;6.85;;;;;;;18.64;62.38;99247.53;5198463;28;20154;-71
2022/07/30 05:34:25;;;;;;;10.25;6.60;;;;;;;18.92;62.41;99263.81;5186041;28;20057;-71
2022/07/30 05:37:16;;;;;;;9.07;6.85;;;;;;;18.97;61.72;99255.97;5201264;28;20049;-71
2022/07/30 05:40:07;;;;;;;9.00;6.72;;;;;;;19.01;61.71;99266.19;5191111;28;20050;-71
2022/07/30 05:43:20;;;;;;;13.65;7.35;;;;;;;19.18;61.02;99276.66;5187362;28;20045;-71
2022/07/30 05:46:10;;;;;;;8.57;6.72;;;;;;;19.05;61.09;99233.53;5214711;28;20412;-71
2022/07/30 05:49:01;;;;;;;9.43;6.70;;;;;;;19.32;60.71;99264.19;5202017;28;20057;-71
2022/07/30 05:51:51;;;;;;;10.55;6.45;;;;;;;19.33;61.01;99268.53;5200983;28;20134;-72
2022/07/30 05:54:41;;;;;;;10.75;6.95;;;;;;;19.35;60.65;99259.25;5187843;28;20041;-73
2022/07/30 05:57:52;;;;;;;10.68;7.53;;;;;;;19.46;61.48;99271.31;5202394;28;20135;-74
2022/07/30 06:00:42;;;;;;;13.63;6.72;;;;;;;19.61;60.82;99276.63;5200593;28;20056;-73
2022/07/30 06:03:33;;;;;;;9.77;5.93;;;;;;;19.59;60.92;99274.13;5215795;28;20419;-69
2022/07/30 06:06:56;;;;;;;10.57;6.05;;;;;;;19.78;60.26;99285.28;5200398;28;20091;-71
2022/07/30 06:09:48;;;;;;;15.07;6.68;;;;;;;19.84;59.58;99268.34;5203594;28;20089;-71
2022/07/30 06:12:38;;;;;;;11.80;6.65;;;;;;;20.02;58.29;99278.59;5201178;28;20057;-71
2022/07/30 06:15:29;;;;;;;12.25;6.05;;;;;;;20.13;58.99;99278.88;5192585;28;20061;-71
2022/07/30 06:18:19;;;;;;;15.05;6.50;;;;;;;20.33;58.59;99280.81;5219725;28;20514;-74
2022/07/30 06:21:14;;;;;;;10.60;6.60;;;;;;;20.43;58.87;99289.38;5205209;28;20420;-73
2022/07/30 06:24:21;;;;;;;11.38;5.95;;;;;;;20.67;57.31;99285.34;5202083;28;20492;-70
2022/07/30 06:27:24;;;;;;;9.05;6.40;;;;;;;20.72;56.93;99292.81;5202056;28;20118;-71
2022/07/30 06:30:15;;;;;;;12.32;6.00;;;;;;;21.01;57.08;99295.19;5212138;28;20207;-71
2022/07/30 06:33:05;;;;;;;9.68;6.50;;;;;;;21.13;57.15;99281.97;5204403;28;20061;-72
2022/07/30 06:35:56;;;;;;;11.95;6.18;;;;;;;21.15;55.98;99295.22;5197224;28;20419;-71
2022/07/30 06:38:49;;;;;;;9.43;5.53;;;;;;;21.02;55.59;99294.16;5217569;28;20108;-70
2022/07/30 06:41:46;;;;;;;8.70;5.68;;;;;;;21.48;54.47;99300.69;5197299;28;20049;-73
2022/07/30 06:44:37;;;;;;;7.72;5.03;;;;;;;21.63;54.05;99290.53;5200996;28;20523;-73
2022/07/30 06:47:46;;;;;;;9.77;5.88;;;;;;;21.49;54.45;99294.25;5202988;28;20674;-71
2022/07/30 06:50:36;;;;;;;12.52;5.68;;;;;;;21.11;54.69;99292.94;5204269;28;20052;-72
2022/07/30 06:53:26;;;;;;;11.20;5.22;;;;;;;21.79;53.58;99297.38;5204990;28;20151;-71
2022/07/30 06:56:32;;;;;;;7.65;5.10;;;;;;;22.19;51.94;99300.88;5205251;28;20111;-71
2022/07/30 06:59:27;;;;;;;8.95;4.82;;;;;;;22.14;51.68;99291.69;5208886;28;20060;-72
2022/07/30 07:02:35;;;;;;;6.75;4.55;;;;;;;22.25;52.80;99291.06;5200791;28;20123;-70
2022/07/30 07:05:36;;;;;;;8.45;4.53;;;;;;;22.48;51.41;99288.72;5203989;28;20143;-71
2022/07/30 07:08:27;;;;;;;8.95;4.32;;;;;;;22.72;49.04;99299.84;5196391;28;20069;-71
2022/07/30 07:11:18;;;;;;;9.25;4.85;;;;;;;22.66;51.72;99301.53;5202444;28;20136;-72
2022/07/30 07:14:13;;;;;;;8.35;4.38;;;;;;;22.68;49.88;99302.16;5217801;28;20053;-71
2022/07/30 07:17:03;;;;;;;9.85;3.88;;;;;;;22.82;49.12;99308.31;5205299;28;20057;-70
2022/07/30 07:20:15;;;;;;;5.75;4.15;;;;;;;23.55;49.34;99307.88;5201050;28;20057;-71
2022/07/30 07:23:13;;;;;;;7.63;4.10;;;;;;;23.61;47.61;99306.19;5189849;28;20049;-71
2022/07/30 07:26:05;;;;;;;9.38;3.90;;;;;;;25.08;44.77;99308.97;5202906;28;20124;-71
2022/07/30 07:28:55;;;;;;;9.25;4.00;;;;;;;26.12;41.98;99298.53;5188873;28;20049;-71
2022/07/30 07:31:45;;;;;;;6.43;3.72;;;;;;;25.65;42.73;99292.25;5202240;28;20052;-71
2022/07/30 07:34:56;;;;;;;8.65;4.07;;;;;;;26.83;41.49;99306.56;5195360;28;20052;-71
2022/07/30 07:37:46;;;;;;;7.53;3.72;;;;;;;27.40;39.76;99299.22;5203617;28;20496;-71
2022/07/30 07:40:46;;;;;;;6.10;3.67;;;;;;;28.25;39.77;99288.28;5216280;28;20057;-71
2022/07/30 07:43:37;;;;;;;7.80;3.78;;;;;;;28.54;36.35;99292.50;5205008;28;20523;-71
2022/07/30 07:46:27;;;;;;;11.63;4.05;;;;;;;28.20;36.53;99296.38;5200502;28;20056;-71
2022/07/30 07:49:24;;;;;;;8.13;4.45;;;;;;;28.64;36.37;99297.25;5190946;28;20521;-71
2022/07/30 07:52:15;;;;;;;7.30;4.63;;;;;;;27.76;35.67;99291.66;5203549;28;20053;-69
2022/07/30 07:55:07;;;;;;;8.93;4.43;;;;;;;27.46;36.32;99297.41;5188392;28;20047;-69
2022/07/30 07:57:58;;;;;;;6.85;4.40;;;;;;;28.50;35.90;99290.53;5203320;28;20050;-69
2022/07/30 08:00:48;;;;;;;9.15;4.20;;;;;;;28.98;35.16;99291.63;5198767;28;20156;-69
2022/07/30 08:03:41;;;;;;;9.70;3.67;;;;;;;29.00;35.15;99301.22;5202908;28;20061;-69
2022/07/30 08:06:51;;;;;;;6.95;3.47;;;;;;;29.13;35.01;99310.09;5204075;28;20060;-69
2022/07/30 08:10:08;;;;;;;7.05;3.60;;;;;;;29.89;34.01;99294.38;5203905;28;20080;-69
2022/07/30 08:13:17;;;;;;;7.55;3.13;;;;;;;29.91;35.22;99294.94;5201223;28;20060;-69
2022/07/30 08:16:46;;;;;;;6.97;2.88;;;;;;;28.02;35.82;99295.59;5203776;28;20061;-69
2022/07/30 08:20:09;;;;;;;7.70;3.03;;;;;;;28.86;35.31;99304.59;5202828;28;20054;-68
2022/07/30 08:22:59;;;;;;;8.93;3.10;;;;;;;29.37;34.18;99299.66;5202691;28;20052;-69
2022/07/30 08:25:49;;;;;;;10.30;2.83;;;;;;;30.69;33.43;99294.25;5203280;28;20420;-69
2022/07/30 08:28:41;;;;;;;7.40;2.85;;;;;;;30.23;33.97;99291.31;5216681;28;20581;-69
2022/07/30 08:31:32;;;;;;;6.40;2.50;;;;;;;30.04;34.60;99299.13;5202745;28;20117;-69
2022/07/30 08:34:22;;;;;;;6.18;3.03;;;;;;;28.70;34.46;99287.22;5201245;28;20046;-69
2022/07/30 08:37:16;;;;;;;9.82;3.72;;;;;;;28.71;34.09;99291.59;5186696;28;20077;-69
2022/07/30 08:40:07;;;;;;;7.88;2.50;;;;;;;28.49;36.08;99297.06;5202775;28;20060;-69
2022/07/30 08:43:06;;;;;;;5.70;2.70;;;;;;;28.48;34.33;99298.97;5202203;28;20048;-69
2022/07/30 08:46:00;;;;;;;5.38;2.72;;;;;;;27.66;34.57;99301.53;5202231;28;20420;-69
2022/07/30 08:49:01;;;;;;;4.28;2.65;;;;;;;27.84;36.17;99295.84;5201986;28;20126;-69
2022/07/30 08:52:00;;;;;;;8.23;3.17;;;;;;;27.36;35.97;99297.25;5201885;28;20053;-69
2022/07/30 08:55:07;;;;;;;7.53;2.97;;;;;;;28.48;34.42;99298.97;5202036;28;20049;-69
2022/07/30 08:57:57;;;;;;;5.95;2.65;;;;;;;29.59;32.51;99302.31;5201669;28;20055;-69
2022/07/30 09:00:48;;;;;;;6.63;3.10;;;;;;;30.16;31.65;99307.13;5212620;28;20753;-69
2022/07/30 09:03:38;;;;;;;7.07;2.85;;;;;;;29.58;31.41;99300.69;5188822;28;20127;-69
2022/07/30 09:06:35;;;;;;;6.28;2.92;;;;;;;29.06;32.87;99302.13;5202040;28;20053;-69
2022/07/30 09:09:27;;;;;;;4.82;3.10;;;;;;;29.60;33.22;99301.25;5202155;28;20053;-69
2022/07/30 09:12:31;;;;;;;6.90;2.83;;;;;;;30.28;31.97;99294.09;5201578;28;20045;-69
2022/07/30 09:15:24;;;;;;;6.45;2.85;;;;;;;30.45;31.54;99295.81;5201140;28;20068;-69
2022/07/30 09:18:27;;;;;;;6.65;2.95;;;;;;;30.90;30.10;99297.94;5201817;28;20063;-69
2022/07/30 09:21:22;;;;;;;5.25;2.72;;;;;;;30.88;30.30;99305.59;5201539;28;20518;-69
2022/07/30 09:24:19;;;;;;;4.47;2.80;;;;;;;30.45;29.99;99290.34;5201716;28;20056;-69
2022/07/30 09:27:15;;;;;;;3.55;2.75;;;;;;;29.62;30.99;99293.63;5201162;28;20147;-69
2022/07/30 09:30:12;;;;;;;7.85;3.03;;;;;;;29.11;31.90;99304.09;5202334;28;20183;-69
2022/07/30 09:33:33;;;;;;;3.50;2.40;;;;;;;30.45;30.74;99295.81;5178963;28;20140;-69
2022/07/30 09:36:42;;;;;;;3.72;2.35;;;;;;;30.12;31.55;99297.81;5202776;28;20425;-69
2022/07/30 09:39:44;;;;;;;5.47;2.30;;;;;;;31.31;30.62;99285.13;5203551;28;20057;-69
2022/07/30 09:43:09;;;;;;;5.03;2.70;;;;;;;30.88;29.71;99291.91;5202651;28;20102;-69
2022/07/30 09:46:03;;;;;;;3.55;2.33;;;;;;;30.11;29.89;99304.38;5200984;28;20068;-69
2022/07/30 09:49:12;;;;;;;5.43;2.60;;;;;;;31.91;29.31;99290.91;5201265;28;20423;-69
2022/07/30 09:52:03;;;;;;;5.72;2.13;;;;;;;30.77;29.21;99291.06;5201041;28;20427;-69
2022/07/30 09:54:59;;;;;;;7.38;2.55;;;;;;;30.33;30.57;99285.94;5201365;28;20551;-69
2022/07/30 09:57:57;;;;;;;6.25;2.25;;;;;;;30.75;30.18;99292.38;5215279;28;20488;-69
2022/07/30 10:00:55;;;;;;;4.88;2.42;;;;;;;28.48;32.41;99298.97;5184096;28;20053;-68
2022/07/30 10:04:27;;;;;;;5.70;2.10;;;;;;;29.82;31.83;99298.44;5173218;28;20079;-69
2022/07/30 10:07:27;;;;;;;4.43;2.45;;;;;;;30.58;31.90;99298.88;5186860;28;20146;-69
2022/07/30 10:10:22;;;;;;;3.80;1.95;;;;;;;30.21;31.33;99300.91;5202020;28;20434;-69
2022/07/30 10:13:17;;;;;;;5.63;2.55;;;;;;;28.89;31.67;99299.44;5200742;28;20416;-69
2022/07/30 10:16:11;;;;;;;3.10;2.17;;;;;;;31.30;28.39;99294.44;5187475;28;20063;-69
2022/07/30 10:19:02;;;;;;;4.13;2.45;;;;;;;31.02;28.90;99283.97;5202044;28;20435;-69
2022/07/30 10:22:15;;;;;;;3.88;2.05;;;;;;;30.10;30.51;99286.28;5201610;28;20056;-69
2022/07/30 10:25:24;;;;;;;7.05;2.70;;;;;;;30.11;30.09;99286.03;5187372;28;20148;-69
2022/07/30 10:28:36;;;;;;;7.03;2.25;;;;;;;31.05;28.50;99281.53;5201966;28;20428;-69
2022/07/30 10:31:29;;;;;;;4.63;1.95;;;;;;;30.92;30.04;99286.69;5201209;28;20108;-69
2022/07/30 10:34:41;;;;;;;8.10;2.42;;;;;;;30.00;29.36;99287.09;5202101;28;20053;-69
2022/07/30 10:37:33;;;;;;;4.78;2.33;;;;;;;29.36;31.24;99287.91;5186611;28;20064;-69
2022/07/30 10:40:32;;;;;;;;;;;;;;;29.37;31.68;99288.75;5202326;28;20081;-69
2022/07/30 10:43:50;;;;;;;4.90;2.33;;;;;;;30.45;29.83;99271.19;5200685;28;19936;-69
2022/07/30 10:47:09;;;;;;;4.07;2.45;;;;;;;30.31;30.50;99270.88;5201713;28;20063;-69
2022/07/30 10:50:11;;;;;;;5.63;2.22;;;;;;;31.66;29.62;99272.56;5197979;28;20091;-69
2022/07/30 10:53:02;;;;;;;7.18;2.05;;;;;;;31.26;29.34;99262.38;5190006;28;20061;-70
2022/07/30 10:56:11;;;;;;;3.33;2.15;;;;;;;30.47;28.90;99267.09;5201406;28;20076;-69
2022/07/30 10:59:06;;;;;;;5.13;2.17;;;;;;;30.57;31.17;99269.88;5205007;28;20645;-69
2022/07/30 11:01:57;;;;;;;2.75;1.88;;;;;;;31.41;28.86;99261.59;5204872;28;20455;-69
2022/07/30 11:04:47;;;;;;;4.63;2.17;;;;;;;30.27;29.68;99264.28;5205088;28;20085;-69
2022/07/30 11:07:38;;;;;;;2.75;2.10;;;;;;;30.58;29.85;99270.69;5207363;28;20324;-69
2022/07/30 11:10:36;;;;;;;3.13;2.10;;;;;;;29.47;30.62;99264.25;5205916;28;20251;-69
2022/07/30 11:13:55;;;;;;;5.75;2.60;;;;;;;29.75;30.34;99279.53;5205454;28;20451;-69
2022/07/30 11:16:50;;;;;;;12.30;2.60;;;;;;;29.42;30.75;99270.50;5204611;28;20088;-68
2022/07/30 11:20:06;;;;;;;6.47;2.40;;;;;;;29.75;30.93;99271.31;5205470;28;20046;-69
2022/07/30 11:23:31;;;;;;;4.03;2.10;;;;;;;29.31;32.68;99265.22;5204694;28;20061;-69
2022/07/30 11:26:51;;;;;;;2.28;1.60;;;;;;;29.53;30.13;99265.13;5204851;28;20420;-69
2022/07/30 11:29:42;;;;;;;5.28;1.60;;;;;;;30.14;28.31;99254.63;5192141;28;20451;-69
2022/07/30 11:32:45;;;;;;;1.95;1.73;;;;;;;29.93;28.08;99253.66;5202973;28;20045;-68
2022/07/30 11:35:38;;;;;;;3.20;1.63;;;;;;;30.69;27.23;99250.47;5194520;28;20140;-69
2022/07/30 11:38:51;;;;;;;6.40;1.63;;;;;;;30.96;28.73;99249.47;5204713;28;20456;-69
2022/07/30 11:42:22;;;;;;;3.22;1.50;;;;;;;30.87;27.22;99246.47;5200983;28;20059;-69
2022/07/30 11:45:15;;;;;;;3.15;1.50;;;;;;;29.88;27.66;99239.97;5204723;28;20041;-69
2022/07/30 11:48:12;;;;;;;3.65;1.40;;;;;;;29.50;29.39;99248.19;5204277;28;20064;-69
2022/07/30 11:51:03;;;;;;;3.58;1.73;;;;;;;29.25;29.49;99254.25;5204960;28;20071;-69
2022/07/30 11:54:07;;;;;;;3.22;1.63;;;;;;;29.35;29.36;99248.03;5204864;28;20049;-69
2022/07/30 11:56:57;;;;;;;1.52;1.40;;;;;;;31.03;27.67;99239.91;5204291;28;20114;-69
2022/07/30 11:59:54;;;;;;;2.08;1.55;;;;;;;30.38;28.19;99236.69;5204438;28;20072;-69
2022/07/30 12:02:46;;;;;;;2.88;1.50;;;;;;;30.29;28.46;99237.47;5214155;28;20140;-69
2022/07/30 12:05:37;;;;;;;3.22;1.33;;;;;;;30.07;28.24;99241.19;5201915;28;20049;-69
2022/07/30 12:08:27;;;;;;;2.85;1.40;;;;;;;29.62;29.51;99239.00;5204419;28;20061;-69
2022/07/30 12:11:32;;;;;;;3.30;1.77;;;;;;;29.51;29.15;99238.06;5189723;28;20056;-69
2022/07/30 12:14:24;;;;;;;5.18;1.70;;;;;;;30.26;28.59;99229.81;5204769;28;20466;-69
2022/07/30 12:17:14;;;;;;;5.32;1.95;;;;;;;30.61;28.89;99227.19;5203986;28;20423;-69
2022/07/30 12:20:14;;;;;;;5.05;1.80;;;;;;;31.41;28.36;99228.72;5203724;28;20530;-68
2022/07/30 12:23:14;;;;;;;4.80;2.05;;;;;;;30.44;28.38;99229.34;5192429;28;20187;-69
2022/07/30 12:26:25;;;;;;;3.38;2.00;;;;;;;30.02;28.68;99229.38;5203450;28;20053;-69
2022/07/30 12:29:17;;;;;;;4.25;1.92;;;;;;;30.25;29.06;99226.25;5203034;28;20156;-68
2022/07/30 12:32:07;;;;;;;4.95;2.10;;;;;;;30.04;29.23;99227.22;5198981;28;20052;-67
2022/07/30 12:34:57;;;;;;;13.63;2.30;;;;;;;29.06;30.54;99222.13;5190441;28;20053;-68
2022/07/30 12:38:03;;;;;;;7.30;2.03;;;;;;;29.64;29.68;99223.97;5197570;28;20138;-69
2022/07/30 12:41:02;;;;;;;2.10;1.60;;;;;;;29.39;29.68;99221.84;5189406;28;20053;-68
2022/07/30 12:43:54;;;;;;;2.60;1.75;;;;;;;30.40;29.28;99220.03;5203593;28;20053;-68
2022/07/30 12:46:44;;;;;;;2.28;1.95;;;;;;;30.11;30.60;99219.59;5187688;28;20142;-69
2022/07/30 12:49:35;;;;;;;3.03;2.00;;;;;;;30.06;29.81;99225.03;5203287;28;20053;-69
2022/07/30 12:52:38;;;;;;;3.45;1.70;;;;;;;29.88;29.80;99213.47;5202570;28;20048;-67
2022/07/30 12:55:31;;;;;;;5.10;2.20;;;;;;;29.36;31.39;99213.34;5203532;28;20738;-69
2022/07/30 12:58:22;;;;;;;2.55;2.35;;;;;;;28.80;31.17;99217.19;5203153;28;20869;-68
2022/07/30 13:01:13;;;;;;;4.63;2.42;;;;;;;29.66;30.04;99207.31;5192103;28;20423;-68
2022/07/30 13:04:07;;;;;;;3.20;1.75;;;;;;;29.43;30.08;99209.31;5203599;28;20495;-69
2022/07/30 13:07:03;;;;;;;;;;;;;;;29.68;30.73;99202.41;5189024;28;20344;-67
2022/07/30 13:10:06;;;;;;;1.73;1.45;;;;;;;29.58;28.71;99192.22;5203158;28;20361;-69
2022/07/30 13:12:57;;;;;;;3.83;1.50;;;;;;;29.80;30.76;99186.66;5195688;28;20049;-67
2022/07/30 13:16:02;;;;;;;6.47;1.80;;;;;;;29.22;30.47;99182.94;5202558;28;20045;-69
2022/07/30 13:18:52;;;;;;;1.98;1.52;;;;;;;29.51;30.15;99172.50;5196639;28;20553;-68
2022/07/30 13:21:42;;;;;;;3.22;1.80;;;;;;;29.66;30.12;99166.31;5201407;28;20069;-68
2022/07/30 13:24:39;;;;;;;1.65;1.55;;;;;;;29.42;29.88;99182.28;5203005;28;20056;-68
2022/07/30 13:27:29;;;;;;;3.80;1.80;;;;;;;29.82;29.88;99178.16;5202262;28;20131;-68
2022/07/30 13:30:19;;;;;;;2.13;1.75;;;;;;;29.45;30.27;99168.91;5202829;28;20064;-68
2022/07/30 13:33:10;;;;;;;7.88;1.80;;;;;;;29.78;29.99;99172.41;5201937;28;20107;-67
2022/07/30 13:36:00;;;;;;;5.63;1.83;;;;;;;29.54;29.65;99168.41;5202513;28;20366;-69
2022/07/30 13:38:50;;;;;;;4.80;1.60;;;;;;;29.84;29.61;99165.88;5201461;28;20119;-69
2022/07/30 13:41:41;;;;;;;2.17;1.88;;;;;;;29.94;30.04;99167.84;5202245;28;20518;-67
2022/07/30 13:44:31;;;;;;;4.20;1.63;;;;;;;29.46;28.86;99162.34;5203047;28;20175;-68
2022/07/30 13:47:22;;;;;;;3.17;1.70;;;;;;;29.29;29.48;99152.69;5189243;28;20523;-67
2022/07/30 13:50:12;;;;;;;4.65;1.70;;;;;;;29.29;30.24;99128.91;5202244;28;20060;-67
2022/07/30 13:53:03;;;;;;;8.18;1.90;;;;;;;30.09;29.40;99156.13;5201903;28;20042;-67